Terminal Aerodrome Forecast
Issued by NWS

Home | Current Version | Previous Version | Text Only | Print | Product List | Glossary On
Versions: 1 2 3 4 5 6 7 8 9 10 11 12 13 14 15 16 17 18 19 20 21 22 23 24
000
FTUS41 KILN 221342 AAA
TAFLUK
TAF AMD
KLUK 221342Z 2214/2312 21005KT P6SM VCSH SCT008 BKN012
      TEMPO 2214/2215 -SHRA BKN009
     FM221500 23007KT P6SM VCTS BKN035CB
     FM230000 28007KT P6SM VCSH BKN050
     FM230400 35005KT P6SM BKN100
     FM230700 35002KT 4SM BR SCT250
     FM230900 00000KT 1 1/2SM BR OVC003=

USA.gov is the U.S. government's official web portal to all federal, state and local government web resources and services.